sensor_id;sensor_type;location;lat;lon;timestamp;P1;durP1;ratioP1;P2;durP2;ratioP2
12861;SDS011;6499;66.348;14.134;2023-02-13T00:01:05;12.40;;;2.80;;
12861;SDS011;6499;66.348;14.134;2023-02-13T00:03:32;12.53;;;3.10;;
12861;SDS011;6499;66.348;14.134;2023-02-13T00:05:59;15.00;;;3.53;;
12861;SDS011;6499;66.348;14.134;2023-02-13T00:08:25;12.67;;;3.03;;
12861;SDS011;6499;66.348;14.134;2023-02-13T00:10:52;14.70;;;3.07;;
12861;SDS011;6499;66.348;14.134;2023-02-13T00:13:19;15.77;;;3.30;;
12861;SDS011;6499;66.348;14.134;2023-02-13T00:15:53;10.17;;;2.50;;
12861;SDS011;6499;66.348;14.134;2023-02-13T00:18:20;12.33;;;3.37;;
12861;SDS011;6499;66.348;14.134;2023-02-13T00:20:55;10.27;;;2.83;;
12861;SDS011;6499;66.348;14.134;2023-02-13T00:23:21;17.10;;;3.33;;
12861;SDS011;6499;66.348;14.134;2023-02-13T00:25:48;15.50;;;3.33;;
12861;SDS011;6499;66.348;14.134;2023-02-13T00:28:14;16.37;;;3.37;;
12861;SDS011;6499;66.348;14.134;2023-02-13T00:30:42;19.57;;;3.97;;
12861;SDS011;6499;66.348;14.134;2023-02-13T00:33:09;13.07;;;2.80;;
12861;SDS011;6499;66.348;14.134;2023-02-13T00:35:35;12.20;;;3.27;;
12861;SDS011;6499;66.348;14.134;2023-02-13T00:38:02;16.80;;;3.53;;
12861;SDS011;6499;66.348;14.134;2023-02-13T00:40:28;19.43;;;3.53;;
12861;SDS011;6499;66.348;14.134;2023-02-13T00:42:55;11.67;;;3.50;;
12861;SDS011;6499;66.348;14.134;2023-02-13T00:45:21;14.00;;;2.90;;
12861;SDS011;6499;66.348;14.134;2023-02-13T00:47:49;11.27;;;2.90;;
12861;SDS011;6499;66.348;14.134;2023-02-13T00:50:16;17.97;;;3.60;;
12861;SDS011;6499;66.348;14.134;2023-02-13T00:52:42;12.53;;;3.10;;
12861;SDS011;6499;66.348;14.134;2023-02-13T00:55:09;12.33;;;3.27;;
12861;SDS011;6499;66.348;14.134;2023-02-13T00:57:35;12.30;;;2.90;;
12861;SDS011;6499;66.348;14.134;2023-02-13T01:00:02;10.83;;;2.87;;
12861;SDS011;6499;66.348;14.134;2023-02-13T01:02:29;12.67;;;2.67;;
12861;SDS011;6499;66.348;14.134;2023-02-13T01:04:56;11.40;;;3.13;;
12861;SDS011;6499;66.348;14.134;2023-02-13T01:07:23;13.47;;;3.17;;
12861;SDS011;6499;66.348;14.134;2023-02-13T01:09:49;15.63;;;3.27;;
12861;SDS011;6499;66.348;14.134;2023-02-13T01:12:16;10.37;;;2.73;;
12861;SDS011;6499;66.348;14.134;2023-02-13T01:14:43;14.47;;;3.13;;
12861;SDS011;6499;66.348;14.134;2023-02-13T01:17:09;17.07;;;3.53;;
12861;SDS011;6499;66.348;14.134;2023-02-13T01:19:36;12.40;;;3.03;;
12861;SDS011;6499;66.348;14.134;2023-02-13T01:22:04;11.97;;;3.47;;
12861;SDS011;6499;66.348;14.134;2023-02-13T01:24:30;15.60;;;3.10;;
12861;SDS011;6499;66.348;14.134;2023-02-13T01:26:58;15.57;;;3.37;;
12861;SDS011;6499;66.348;14.134;2023-02-13T01:29:26;10.87;;;3.00;;
12861;SDS011;6499;66.348;14.134;2023-02-13T01:31:53;13.77;;;3.53;;
12861;SDS011;6499;66.348;14.134;2023-02-13T01:36:49;18.00;;;3.47;;
12861;SDS011;6499;66.348;14.134;2023-02-13T01:39:16;17.20;;;3.10;;
12861;SDS011;6499;66.348;14.134;2023-02-13T01:41:43;17.27;;;3.60;;
12861;SDS011;6499;66.348;14.134;2023-02-13T01:46:54;12.83;;;3.10;;
12861;SDS011;6499;66.348;14.134;2023-02-13T01:49:22;12.27;;;2.90;;
12861;SDS011;6499;66.348;14.134;2023-02-13T01:51:49;13.53;;;2.87;;
12861;SDS011;6499;66.348;14.134;2023-02-13T01:54:19;13.20;;;3.33;;
12861;SDS011;6499;66.348;14.134;2023-02-13T01:56:47;11.87;;;3.40;;
12861;SDS011;6499;66.348;14.134;2023-02-13T01:59:16;15.63;;;3.47;;
12861;SDS011;6499;66.348;14.134;2023-02-13T02:01:44;9.10;;;3.07;;
12861;SDS011;6499;66.348;14.134;2023-02-13T02:04:11;12.93;;;3.10;;
12861;SDS011;6499;66.348;14.134;2023-02-13T02:06:39;11.67;;;2.70;;
12861;SDS011;6499;66.348;14.134;2023-02-13T02:09:09;13.47;;;2.83;;
12861;SDS011;6499;66.348;14.134;2023-02-13T02:11:40;11.00;;;3.03;;
12861;SDS011;6499;66.348;14.134;2023-02-13T02:17:11;11.70;;;2.80;;
12861;SDS011;6499;66.348;14.134;2023-02-13T02:19:38;14.63;;;3.37;;
12861;SDS011;6499;66.348;14.134;2023-02-13T02:27:54;13.77;;;3.20;;
12861;SDS011;6499;66.348;14.134;2023-02-13T02:33:13;12.70;;;2.47;;
12861;SDS011;6499;66.348;14.134;2023-02-13T02:35:45;8.67;;;2.07;;
12861;SDS011;6499;66.348;14.134;2023-02-13T02:38:16;9.93;;;3.17;;
12861;SDS011;6499;66.348;14.134;2023-02-13T02:40:49;15.07;;;2.53;;
12861;SDS011;6499;66.348;14.134;2023-02-13T02:43:22;8.37;;;2.27;;
12861;SDS011;6499;66.348;14.134;2023-02-13T02:45:51;7.83;;;2.37;;
12861;SDS011;6499;66.348;14.134;2023-02-13T02:48:24;14.80;;;2.57;;
12861;SDS011;6499;66.348;14.134;2023-02-13T02:51:11;11.63;;;2.57;;
12861;SDS011;6499;66.348;14.134;2023-02-13T02:53:43;12.17;;;3.13;;
12861;SDS011;6499;66.348;14.134;2023-02-13T02:56:13;11.93;;;2.83;;
12861;SDS011;6499;66.348;14.134;2023-02-13T02:58:44;13.57;;;2.97;;
12861;SDS011;6499;66.348;14.134;2023-02-13T03:01:29;13.03;;;2.90;;
12861;SDS011;6499;66.348;14.134;2023-02-13T03:04:17;13.50;;;2.70;;
12861;SDS011;6499;66.348;14.134;2023-02-13T03:07:02;7.77;;;2.30;;
12861;SDS011;6499;66.348;14.134;2023-02-13T03:09:34;11.67;;;2.90;;
12861;SDS011;6499;66.348;14.134;2023-02-13T03:18:23;10.63;;;2.67;;
12861;SDS011;6499;66.348;14.134;2023-02-13T03:21:09;6.83;;;2.50;;
12861;SDS011;6499;66.348;14.134;2023-02-13T03:23:56;7.63;;;2.30;;
12861;SDS011;6499;66.348;14.134;2023-02-13T03:26:29;7.17;;;2.40;;
12861;SDS011;6499;66.348;14.134;2023-02-13T03:29:11;14.00;;;2.43;;
12861;SDS011;6499;66.348;14.134;2023-02-13T03:31:58;8.60;;;1.90;;
12861;SDS011;6499;66.348;14.134;2023-02-13T03:34:29;9.80;;;2.27;;
12861;SDS011;6499;66.348;14.134;2023-02-13T03:37:22;7.97;;;2.20;;
12861;SDS011;6499;66.348;14.134;2023-02-13T03:40:11;6.90;;;2.47;;
12861;SDS011;6499;66.348;14.134;2023-02-13T03:42:39;7.87;;;2.13;;
12861;SDS011;6499;66.348;14.134;2023-02-13T03:45:08;6.77;;;2.17;;
12861;SDS011;6499;66.348;14.134;2023-02-13T03:47:55;8.67;;;2.03;;
12861;SDS011;6499;66.348;14.134;2023-02-13T03:50:23;8.67;;;1.80;;
12861;SDS011;6499;66.348;14.134;2023-02-13T03:52:53;8.53;;;2.50;;
12861;SDS011;6499;66.348;14.134;2023-02-13T03:55:20;9.07;;;2.20;;
12861;SDS011;6499;66.348;14.134;2023-02-13T03:58:06;8.70;;;2.17;;
12861;SDS011;6499;66.348;14.134;2023-02-13T04:00:51;11.83;;;2.67;;
12861;SDS011;6499;66.348;14.134;2023-02-13T04:03:21;11.07;;;2.57;;
12861;SDS011;6499;66.348;14.134;2023-02-13T04:05:49;8.50;;;2.77;;
12861;SDS011;6499;66.348;14.134;2023-02-13T04:08:18;12.07;;;2.43;;
12861;SDS011;6499;66.348;14.134;2023-02-13T04:10:47;9.67;;;2.50;;
12861;SDS011;6499;66.348;14.134;2023-02-13T04:13:17;8.43;;;2.43;;
12861;SDS011;6499;66.348;14.134;2023-02-13T04:15:45;6.40;;;1.63;;
12861;SDS011;6499;66.348;14.134;2023-02-13T04:18:14;8.53;;;2.10;;
12861;SDS011;6499;66.348;14.134;2023-02-13T04:20:42;8.43;;;2.50;;
12861;SDS011;6499;66.348;14.134;2023-02-13T04:23:09;7.83;;;2.17;;
12861;SDS011;6499;66.348;14.134;2023-02-13T04:25:38;16.40;;;3.43;;
12861;SDS011;6499;66.348;14.134;2023-02-13T04:28:05;11.20;;;3.00;;
12861;SDS011;6499;66.348;14.134;2023-02-13T04:30:32;17.00;;;3.80;;
12861;SDS011;6499;66.348;14.134;2023-02-13T04:36:01;12.37;;;2.83;;
12861;SDS011;6499;66.348;14.134;2023-02-13T04:41:12;15.00;;;3.17;;
12861;SDS011;6499;66.348;14.134;2023-02-13T04:43:38;10.33;;;2.80;;
12861;SDS011;6499;66.348;14.134;2023-02-13T04:46:05;9.83;;;2.67;;
12861;SDS011;6499;66.348;14.134;2023-02-13T04:48:31;13.67;;;3.20;;
12861;SDS011;6499;66.348;14.134;2023-02-13T04:50:58;13.17;;;2.50;;
12861;SDS011;6499;66.348;14.134;2023-02-13T04:53:24;16.00;;;2.80;;
12861;SDS011;6499;66.348;14.134;2023-02-13T04:55:51;10.97;;;2.40;;
12861;SDS011;6499;66.348;14.134;2023-02-13T04:58:19;8.57;;;2.20;;
12861;SDS011;6499;66.348;14.134;2023-02-13T05:00:45;9.83;;;2.47;;
12861;SDS011;6499;66.348;14.134;2023-02-13T05:03:12;10.77;;;2.67;;
12861;SDS011;6499;66.348;14.134;2023-02-13T05:05:38;9.30;;;2.57;;
12861;SDS011;6499;66.348;14.134;2023-02-13T05:08:05;10.87;;;2.40;;
12861;SDS011;6499;66.348;14.134;2023-02-13T05:10:32;11.63;;;2.73;;
12861;SDS011;6499;66.348;14.134;2023-02-13T05:12:59;11.73;;;2.60;;
12861;SDS011;6499;66.348;14.134;2023-02-13T05:15:27;11.50;;;2.60;;
12861;SDS011;6499;66.348;14.134;2023-02-13T05:17:53;13.93;;;2.60;;
12861;SDS011;6499;66.348;14.134;2023-02-13T05:20:20;12.20;;;2.27;;
12861;SDS011;6499;66.348;14.134;2023-02-13T05:22:47;8.97;;;2.23;;
12861;SDS011;6499;66.348;14.134;2023-02-13T05:25:33;8.90;;;2.83;;
12861;SDS011;6499;66.348;14.134;2023-02-13T05:27:59;11.27;;;2.30;;
12861;SDS011;6499;66.348;14.134;2023-02-13T05:30:27;9.90;;;2.67;;
12861;SDS011;6499;66.348;14.134;2023-02-13T05:38:44;11.57;;;2.10;;
12861;SDS011;6499;66.348;14.134;2023-02-13T05:41:11;8.50;;;2.63;;
12861;SDS011;6499;66.348;14.134;2023-02-13T05:43:38;16.33;;;4.47;;
12861;SDS011;6499;66.348;14.134;2023-02-13T05:46:07;14.73;;;3.30;;
12861;SDS011;6499;66.348;14.134;2023-02-13T05:48:34;9.90;;;3.07;;
12861;SDS011;6499;66.348;14.134;2023-02-13T05:51:00;11.43;;;2.80;;
12861;SDS011;6499;66.348;14.134;2023-02-13T05:53:27;10.90;;;2.77;;
12861;SDS011;6499;66.348;14.134;2023-02-13T05:55:54;15.73;;;3.33;;
12861;SDS011;6499;66.348;14.134;2023-02-13T05:58:21;9.23;;;2.57;;
12861;SDS011;6499;66.348;14.134;2023-02-13T06:00:48;9.37;;;2.20;;
12861;SDS011;6499;66.348;14.134;2023-02-13T06:03:28;9.70;;;2.77;;
12861;SDS011;6499;66.348;14.134;2023-02-13T06:05:58;8.07;;;2.50;;
12861;SDS011;6499;66.348;14.134;2023-02-13T06:08:25;13.23;;;2.77;;
12861;SDS011;6499;66.348;14.134;2023-02-13T06:10:51;14.03;;;2.90;;
12861;SDS011;6499;66.348;14.134;2023-02-13T06:13:18;6.53;;;1.90;;
12861;SDS011;6499;66.348;14.134;2023-02-13T06:15:44;10.00;;;2.27;;
12861;SDS011;6499;66.348;14.134;2023-02-13T06:18:11;5.77;;;1.80;;
12861;SDS011;6499;66.348;14.134;2023-02-13T06:20:39;9.97;;;2.87;;
12861;SDS011;6499;66.348;14.134;2023-02-13T06:23:06;8.23;;;2.57;;
12861;SDS011;6499;66.348;14.134;2023-02-13T06:25:34;5.00;;;1.70;;
12861;SDS011;6499;66.348;14.134;2023-02-13T06:28:01;5.33;;;1.77;;
12861;SDS011;6499;66.348;14.134;2023-02-13T06:30:27;7.67;;;1.93;;
12861;SDS011;6499;66.348;14.134;2023-02-13T06:35:54;6.97;;;1.60;;
12861;SDS011;6499;66.348;14.134;2023-02-13T06:38:21;5.20;;;1.60;;
12861;SDS011;6499;66.348;14.134;2023-02-13T06:40:48;5.83;;;1.43;;
12861;SDS011;6499;66.348;14.134;2023-02-13T06:43:15;5.93;;;1.53;;
12861;SDS011;6499;66.348;14.134;2023-02-13T06:45:41;4.67;;;1.90;;
12861;SDS011;6499;66.348;14.134;2023-02-13T06:48:08;7.63;;;2.43;;
12861;SDS011;6499;66.348;14.134;2023-02-13T06:50:35;10.10;;;2.23;;
12861;SDS011;6499;66.348;14.134;2023-02-13T06:53:02;9.77;;;2.33;;
12861;SDS011;6499;66.348;14.134;2023-02-13T06:55:29;8.13;;;1.53;;
12861;SDS011;6499;66.348;14.134;2023-02-13T06:57:55;8.87;;;1.87;;
12861;SDS011;6499;66.348;14.134;2023-02-13T07:00:22;6.07;;;1.67;;
12861;SDS011;6499;66.348;14.134;2023-02-13T07:02:48;9.90;;;2.83;;
12861;SDS011;6499;66.348;14.134;2023-02-13T07:05:15;9.37;;;2.53;;
12861;SDS011;6499;66.348;14.134;2023-02-13T07:07:41;4.47;;;1.80;;
12861;SDS011;6499;66.348;14.134;2023-02-13T07:10:11;6.00;;;1.40;;
12861;SDS011;6499;66.348;14.134;2023-02-13T07:12:37;9.10;;;1.73;;
12861;SDS011;6499;66.348;14.134;2023-02-13T07:15:04;6.23;;;1.60;;
12861;SDS011;6499;66.348;14.134;2023-02-13T07:17:32;9.37;;;1.77;;
12861;SDS011;6499;66.348;14.134;2023-02-13T07:19:59;6.13;;;1.70;;
12861;SDS011;6499;66.348;14.134;2023-02-13T07:22:25;4.43;;;2.00;;
12861;SDS011;6499;66.348;14.134;2023-02-13T07:24:52;5.47;;;1.70;;
12861;SDS011;6499;66.348;14.134;2023-02-13T07:27:19;6.33;;;1.60;;
12861;SDS011;6499;66.348;14.134;2023-02-13T07:29:46;7.20;;;2.10;;
12861;SDS011;6499;66.348;14.134;2023-02-13T07:32:12;8.70;;;1.93;;
12861;SDS011;6499;66.348;14.134;2023-02-13T07:34:39;5.13;;;1.83;;
12861;SDS011;6499;66.348;14.134;2023-02-13T07:37:05;6.93;;;1.93;;
12861;SDS011;6499;66.348;14.134;2023-02-13T07:39:32;5.67;;;1.43;;
12861;SDS011;6499;66.348;14.134;2023-02-13T07:41:58;6.20;;;1.90;;
12861;SDS011;6499;66.348;14.134;2023-02-13T07:44:26;6.17;;;1.87;;
12861;SDS011;6499;66.348;14.134;2023-02-13T07:46:53;6.53;;;1.57;;
12861;SDS011;6499;66.348;14.134;2023-02-13T07:49:19;8.13;;;1.73;;
12861;SDS011;6499;66.348;14.134;2023-02-13T07:51:46;6.07;;;1.10;;
12861;SDS011;6499;66.348;14.134;2023-02-13T07:54:12;4.40;;;1.23;;
12861;SDS011;6499;66.348;14.134;2023-02-13T07:56:39;5.27;;;1.40;;
12861;SDS011;6499;66.348;14.134;2023-02-13T07:59:23;5.63;;;1.40;;
12861;SDS011;6499;66.348;14.134;2023-02-13T08:01:51;5.47;;;1.30;;
12861;SDS011;6499;66.348;14.134;2023-02-13T08:04:18;4.23;;;1.40;;
12861;SDS011;6499;66.348;14.134;2023-02-13T08:06:44;6.47;;;1.80;;
12861;SDS011;6499;66.348;14.134;2023-02-13T08:09:13;7.33;;;1.60;;
12861;SDS011;6499;66.348;14.134;2023-02-13T08:12:00;10.73;;;1.70;;
12861;SDS011;6499;66.348;14.134;2023-02-13T08:14:27;14.00;;;2.77;;
12861;SDS011;6499;66.348;14.134;2023-02-13T08:16:54;7.27;;;2.17;;
12861;SDS011;6499;66.348;14.134;2023-02-13T08:19:21;9.10;;;2.20;;
12861;SDS011;6499;66.348;14.134;2023-02-13T08:21:48;16.37;;;2.97;;
12861;SDS011;6499;66.348;14.134;2023-02-13T08:24:14;11.17;;;3.23;;
12861;SDS011;6499;66.348;14.134;2023-02-13T08:26:54;11.83;;;3.87;;
12861;SDS011;6499;66.348;14.134;2023-02-13T08:29:21;17.83;;;6.47;;
12861;SDS011;6499;66.348;14.134;2023-02-13T08:31:47;30.10;;;13.03;;
12861;SDS011;6499;66.348;14.134;2023-02-13T08:34:15;60.80;;;26.93;;
12861;SDS011;6499;66.348;14.134;2023-02-13T08:36:42;87.67;;;33.07;;
12861;SDS011;6499;66.348;14.134;2023-02-13T08:39:08;111.27;;;47.53;;
12861;SDS011;6499;66.348;14.134;2023-02-13T08:41:35;10.83;;;3.20;;
12861;SDS011;6499;66.348;14.134;2023-02-13T08:44:01;9.07;;;2.37;;
12861;SDS011;6499;66.348;14.134;2023-02-13T08:46:28;8.70;;;2.47;;
12861;SDS011;6499;66.348;14.134;2023-02-13T08:48:54;8.00;;;2.70;;
12861;SDS011;6499;66.348;14.134;2023-02-13T08:51:22;9.90;;;2.70;;
12861;SDS011;6499;66.348;14.134;2023-02-13T08:53:48;13.83;;;2.90;;
12861;SDS011;6499;66.348;14.134;2023-02-13T08:56:15;10.23;;;2.33;;
12861;SDS011;6499;66.348;14.134;2023-02-13T08:58:41;7.80;;;2.50;;
12861;SDS011;6499;66.348;14.134;2023-02-13T09:01:08;7.00;;;2.30;;
12861;SDS011;6499;66.348;14.134;2023-02-13T09:03:34;10.37;;;2.40;;
12861;SDS011;6499;66.348;14.134;2023-02-13T09:06:01;7.93;;;1.93;;
12861;SDS011;6499;66.348;14.134;2023-02-13T09:08:29;7.20;;;2.30;;
12861;SDS011;6499;66.348;14.134;2023-02-13T09:10:57;9.87;;;2.10;;
12861;SDS011;6499;66.348;14.134;2023-02-13T09:13:23;9.23;;;2.30;;
12861;SDS011;6499;66.348;14.134;2023-02-13T09:15:50;10.70;;;2.30;;
12861;SDS011;6499;66.348;14.134;2023-02-13T09:18:16;10.53;;;3.00;;
12861;SDS011;6499;66.348;14.134;2023-02-13T09:20:43;11.10;;;2.63;;
12861;SDS011;6499;66.348;14.134;2023-02-13T09:23:09;9.30;;;2.10;;
12861;SDS011;6499;66.348;14.134;2023-02-13T09:25:37;13.17;;;2.90;;
12861;SDS011;6499;66.348;14.134;2023-02-13T09:28:04;11.17;;;2.50;;
12861;SDS011;6499;66.348;14.134;2023-02-13T09:30:30;10.43;;;2.60;;
12861;SDS011;6499;66.348;14.134;2023-02-13T09:32:57;10.10;;;2.17;;
12861;SDS011;6499;66.348;14.134;2023-02-13T09:35:23;11.90;;;2.40;;
12861;SDS011;6499;66.348;14.134;2023-02-13T09:37:50;14.37;;;2.93;;
12861;SDS011;6499;66.348;14.134;2023-02-13T09:40:17;14.37;;;2.97;;
12861;SDS011;6499;66.348;14.134;2023-02-13T09:42:46;8.53;;;1.97;;
12861;SDS011;6499;66.348;14.134;2023-02-13T09:45:13;9.87;;;2.30;;
12861;SDS011;6499;66.348;14.134;2023-02-13T09:47:40;8.73;;;2.27;;
12861;SDS011;6499;66.348;14.134;2023-02-13T09:50:10;6.17;;;2.10;;
12861;SDS011;6499;66.348;14.134;2023-02-13T09:52:37;9.87;;;3.33;;
12861;SDS011;6499;66.348;14.134;2023-02-13T09:55:12;12.97;;;4.03;;
12861;SDS011;6499;66.348;14.134;2023-02-13T09:57:41;32.47;;;14.47;;
12861;SDS011;6499;66.348;14.134;2023-02-13T10:00:12;28.37;;;14.07;;
12861;SDS011;6499;66.348;14.134;2023-02-13T10:05:27;75.77;;;36.00;;
12861;SDS011;6499;66.348;14.134;2023-02-13T10:07:59;36.03;;;17.73;;
12861;SDS011;6499;66.348;14.134;2023-02-13T10:10:29;39.43;;;19.80;;
12861;SDS011;6499;66.348;14.134;2023-02-13T10:13:01;9.90;;;3.50;;
12861;SDS011;6499;66.348;14.134;2023-02-13T10:15:33;5.77;;;1.77;;
12861;SDS011;6499;66.348;14.134;2023-02-13T10:18:02;7.63;;;2.37;;
12861;SDS011;6499;66.348;14.134;2023-02-13T10:20:31;6.07;;;2.70;;
12861;SDS011;6499;66.348;14.134;2023-02-13T10:23:01;4.13;;;1.50;;
12861;SDS011;6499;66.348;14.134;2023-02-13T10:25:30;5.47;;;1.77;;
12861;SDS011;6499;66.348;14.134;2023-02-13T10:28:03;6.17;;;1.93;;
12861;SDS011;6499;66.348;14.134;2023-02-13T10:30:33;8.00;;;1.40;;
12861;SDS011;6499;66.348;14.134;2023-02-13T10:33:03;8.00;;;2.23;;
12861;SDS011;6499;66.348;14.134;2023-02-13T10:35:47;5.90;;;1.40;;
12861;SDS011;6499;66.348;14.134;2023-02-13T10:38:16;8.37;;;2.33;;
12861;SDS011;6499;66.348;14.134;2023-02-13T10:40:47;10.07;;;1.90;;
12861;SDS011;6499;66.348;14.134;2023-02-13T10:43:18;10.20;;;2.07;;
12861;SDS011;6499;66.348;14.134;2023-02-13T10:45:52;6.93;;;1.70;;
12861;SDS011;6499;66.348;14.134;2023-02-13T10:48:26;10.00;;;2.40;;
12861;SDS011;6499;66.348;14.134;2023-02-13T10:50:55;11.07;;;2.73;;
12861;SDS011;6499;66.348;14.134;2023-02-13T10:53:29;14.37;;;2.90;;
12861;SDS011;6499;66.348;14.134;2023-02-13T10:56:09;9.43;;;2.10;;
12861;SDS011;6499;66.348;14.134;2023-02-13T10:58:57;12.43;;;2.17;;
12861;SDS011;6499;66.348;14.134;2023-02-13T11:01:26;14.70;;;3.27;;
12861;SDS011;6499;66.348;14.134;2023-02-13T11:04:01;16.73;;;2.63;;
12861;SDS011;6499;66.348;14.134;2023-02-13T11:06:30;8.40;;;2.60;;
12861;SDS011;6499;66.348;14.134;2023-02-13T11:08:57;8.67;;;2.43;;
12861;SDS011;6499;66.348;14.134;2023-02-13T11:11:28;8.90;;;2.37;;
12861;SDS011;6499;66.348;14.134;2023-02-13T11:14:09;16.33;;;3.43;;
12861;SDS011;6499;66.348;14.134;2023-02-13T11:16:42;11.80;;;2.70;;
12861;SDS011;6499;66.348;14.134;2023-02-13T11:19:14;12.77;;;2.43;;
12861;SDS011;6499;66.348;14.134;2023-02-13T11:21:42;9.97;;;2.60;;
12861;SDS011;6499;66.348;14.134;2023-02-13T11:24:15;10.30;;;2.70;;
12861;SDS011;6499;66.348;14.134;2023-02-13T11:26:42;9.90;;;2.83;;
12861;SDS011;6499;66.348;14.134;2023-02-13T11:29:17;11.03;;;2.73;;
12861;SDS011;6499;66.348;14.134;2023-02-13T11:31:47;9.30;;;3.47;;
12861;SDS011;6499;66.348;14.134;2023-02-13T11:34:26;8.57;;;2.37;;
12861;SDS011;6499;66.348;14.134;2023-02-13T11:36:53;8.73;;;2.50;;
12861;SDS011;6499;66.348;14.134;2023-02-13T11:39:32;10.57;;;2.60;;
12861;SDS011;6499;66.348;14.134;2023-02-13T11:41:59;11.50;;;2.63;;
12861;SDS011;6499;66.348;14.134;2023-02-13T11:44:26;12.53;;;3.27;;
12861;SDS011;6499;66.348;14.134;2023-02-13T11:46:55;9.00;;;2.97;;
12861;SDS011;6499;66.348;14.134;2023-02-13T11:49:24;13.70;;;3.13;;
12861;SDS011;6499;66.348;14.134;2023-02-13T11:51:51;8.63;;;2.27;;
12861;SDS011;6499;66.348;14.134;2023-02-13T11:57:01;10.67;;;3.07;;
12861;SDS011;6499;66.348;14.134;2023-02-13T11:59:30;9.73;;;3.43;;
12861;SDS011;6499;66.348;14.134;2023-02-13T12:02:11;11.93;;;2.67;;
12861;SDS011;6499;66.348;14.134;2023-02-13T12:04:38;11.10;;;3.40;;
12861;SDS011;6499;66.348;14.134;2023-02-13T12:07:11;12.57;;;3.80;;
12861;SDS011;6499;66.348;14.134;2023-02-13T12:09:38;11.40;;;2.90;;
12861;SDS011;6499;66.348;14.134;2023-02-13T12:12:05;12.83;;;4.70;;
12861;SDS011;6499;66.348;14.134;2023-02-13T12:14:33;15.07;;;3.23;;
12861;SDS011;6499;66.348;14.134;2023-02-13T12:17:03;8.77;;;2.77;;
12861;SDS011;6499;66.348;14.134;2023-02-13T12:19:34;10.90;;;3.17;;
12861;SDS011;6499;66.348;14.134;2023-02-13T12:22:13;14.27;;;3.50;;
12861;SDS011;6499;66.348;14.134;2023-02-13T12:24:51;13.27;;;2.93;;
12861;SDS011;6499;66.348;14.134;2023-02-13T12:27:23;11.37;;;3.07;;
12861;SDS011;6499;66.348;14.134;2023-02-13T12:30:07;10.53;;;3.00;;
12861;SDS011;6499;66.348;14.134;2023-02-13T12:32:40;16.00;;;3.17;;
12861;SDS011;6499;66.348;14.134;2023-02-13T12:35:32;15.67;;;3.47;;
12861;SDS011;6499;66.348;14.134;2023-02-13T12:38:01;14.37;;;2.60;;
12861;SDS011;6499;66.348;14.134;2023-02-13T12:40:32;10.57;;;3.50;;
12861;SDS011;6499;66.348;14.134;2023-02-13T12:43:09;9.73;;;2.80;;
12861;SDS011;6499;66.348;14.134;2023-02-13T12:45:39;12.60;;;2.60;;
12861;SDS011;6499;66.348;14.134;2023-02-13T12:48:09;11.03;;;2.67;;
12861;SDS011;6499;66.348;14.134;2023-02-13T12:50:43;12.00;;;2.87;;
12861;SDS011;6499;66.348;14.134;2023-02-13T12:53:18;19.33;;;5.23;;
12861;SDS011;6499;66.348;14.134;2023-02-13T12:55:53;13.83;;;4.77;;
12861;SDS011;6499;66.348;14.134;2023-02-13T12:58:33;22.80;;;7.97;;
12861;SDS011;6499;66.348;14.134;2023-02-13T13:01:03;15.57;;;3.27;;
12861;SDS011;6499;66.348;14.134;2023-02-13T13:03:34;12.20;;;3.37;;
12861;SDS011;6499;66.348;14.134;2023-02-13T13:06:20;15.97;;;3.53;;
12861;SDS011;6499;66.348;14.134;2023-02-13T13:09:02;16.00;;;3.13;;
12861;SDS011;6499;66.348;14.134;2023-02-13T13:11:38;12.87;;;3.07;;
12861;SDS011;6499;66.348;14.134;2023-02-13T13:14:10;8.70;;;2.43;;
12861;SDS011;6499;66.348;14.134;2023-02-13T13:16:42;8.73;;;2.60;;
12861;SDS011;6499;66.348;14.134;2023-02-13T13:19:13;14.67;;;2.80;;
12861;SDS011;6499;66.348;14.134;2023-02-13T13:21:44;11.60;;;3.33;;
12861;SDS011;6499;66.348;14.134;2023-02-13T13:24:17;12.53;;;2.73;;
12861;SDS011;6499;66.348;14.134;2023-02-13T13:26:47;9.07;;;2.63;;
12861;SDS011;6499;66.348;14.134;2023-02-13T13:29:16;6.17;;;2.17;;
12861;SDS011;6499;66.348;14.134;2023-02-13T13:31:44;11.73;;;2.23;;
12861;SDS011;6499;66.348;14.134;2023-02-13T13:34:15;10.80;;;2.47;;
12861;SDS011;6499;66.348;14.134;2023-02-13T13:36:45;11.70;;;2.43;;
12861;SDS011;6499;66.348;14.134;2023-02-13T13:39:15;11.97;;;2.70;;
12861;SDS011;6499;66.348;14.134;2023-02-13T13:41:46;9.60;;;2.63;;
12861;SDS011;6499;66.348;14.134;2023-02-13T13:44:19;15.40;;;2.50;;
12861;SDS011;6499;66.348;14.134;2023-02-13T13:46:54;8.47;;;2.53;;
12861;SDS011;6499;66.348;14.134;2023-02-13T13:49:25;7.17;;;2.00;;
12861;SDS011;6499;66.348;14.134;2023-02-13T13:51:54;9.33;;;2.47;;
12861;SDS011;6499;66.348;14.134;2023-02-13T13:54:34;8.50;;;2.33;;
12861;SDS011;6499;66.348;14.134;2023-02-13T13:57:03;6.90;;;1.97;;
12861;SDS011;6499;66.348;14.134;2023-02-13T14:05:02;7.63;;;2.27;;
12861;SDS011;6499;66.348;14.134;2023-02-13T14:07:34;6.33;;;2.00;;
12861;SDS011;6499;66.348;14.134;2023-02-13T14:10:01;8.77;;;1.93;;
12861;SDS011;6499;66.348;14.134;2023-02-13T14:12:35;8.67;;;1.70;;
12861;SDS011;6499;66.348;14.134;2023-02-13T14:15:02;9.97;;;2.33;;
12861;SDS011;6499;66.348;14.134;2023-02-13T14:20:21;11.60;;;4.90;;
12861;SDS011;6499;66.348;14.134;2023-02-13T14:22:50;6.27;;;2.17;;
12861;SDS011;6499;66.348;14.134;2023-02-13T14:25:21;8.87;;;2.13;;
12861;SDS011;6499;66.348;14.134;2023-02-13T14:27:54;7.00;;;2.37;;
12861;SDS011;6499;66.348;14.134;2023-02-13T14:30:24;11.23;;;3.43;;
12861;SDS011;6499;66.348;14.134;2023-02-13T14:32:51;6.80;;;2.93;;
12861;SDS011;6499;66.348;14.134;2023-02-13T14:35:21;8.73;;;2.30;;
12861;SDS011;6499;66.348;14.134;2023-02-13T14:37:50;9.23;;;2.10;;
12861;SDS011;6499;66.348;14.134;2023-02-13T14:40:28;4.07;;;1.50;;
12861;SDS011;6499;66.348;14.134;2023-02-13T14:42:56;5.53;;;1.50;;
12861;SDS011;6499;66.348;14.134;2023-02-13T14:45:25;4.27;;;1.60;;
12861;SDS011;6499;66.348;14.134;2023-02-13T14:47:53;7.70;;;2.67;;
12861;SDS011;6499;66.348;14.134;2023-02-13T14:50:21;8.57;;;1.97;;
12861;SDS011;6499;66.348;14.134;2023-02-13T14:52:50;10.23;;;2.30;;
12861;SDS011;6499;66.348;14.134;2023-02-13T14:55:19;5.53;;;1.93;;
12861;SDS011;6499;66.348;14.134;2023-02-13T14:57:48;8.17;;;1.77;;
12861;SDS011;6499;66.348;14.134;2023-02-13T15:00:19;6.80;;;1.80;;
12861;SDS011;6499;66.348;14.134;2023-02-13T15:02:48;6.03;;;1.77;;
12861;SDS011;6499;66.348;14.134;2023-02-13T15:05:17;6.33;;;1.80;;
12861;SDS011;6499;66.348;14.134;2023-02-13T15:07:45;5.53;;;1.60;;
12861;SDS011;6499;66.348;14.134;2023-02-13T15:10:22;7.80;;;1.60;;
12861;SDS011;6499;66.348;14.134;2023-02-13T15:12:55;7.60;;;1.80;;
12861;SDS011;6499;66.348;14.134;2023-02-13T15:15:22;9.63;;;1.93;;
12861;SDS011;6499;66.348;14.134;2023-02-13T15:17:49;5.33;;;1.47;;
12861;SDS011;6499;66.348;14.134;2023-02-13T15:20:19;5.67;;;1.70;;
12861;SDS011;6499;66.348;14.134;2023-02-13T15:22:48;19.80;;;10.80;;
12861;SDS011;6499;66.348;14.134;2023-02-13T15:27:57;6.93;;;1.93;;
12861;SDS011;6499;66.348;14.134;2023-02-13T15:30:25;7.60;;;1.50;;
12861;SDS011;6499;66.348;14.134;2023-02-13T15:32:53;8.73;;;1.60;;
12861;SDS011;6499;66.348;14.134;2023-02-13T15:35:20;5.30;;;1.57;;
12861;SDS011;6499;66.348;14.134;2023-02-13T15:37:49;5.20;;;1.57;;
12861;SDS011;6499;66.348;14.134;2023-02-13T15:40:18;3.93;;;1.43;;
12861;SDS011;6499;66.348;14.134;2023-02-13T15:42:47;7.23;;;2.63;;
12861;SDS011;6499;66.348;14.134;2023-02-13T15:45:16;7.13;;;3.00;;
12861;SDS011;6499;66.348;14.134;2023-02-13T15:47:43;11.63;;;4.70;;
12861;SDS011;6499;66.348;14.134;2023-02-13T15:50:14;6.73;;;2.87;;